Terminal Aerodrome Forecast
Issued by NWS Twin Cities, MN

Home | Current Version | Previous Version | Text Only | Print | Product List | Glossary On
Versions: 1 2 3 4 5 6 7 8 9 10 11 12 13 14 15 16 17 18 19 20
000
FTUS43 KMPX 200500
TAFSTC
TAF
KSTC 200520Z 2006/2106 16004KT 6SM BR SCT030
      TEMPO 2006/2008 3SM BR FEW025
     FM201400 19016G22KT P6SM SCT040 BKN200
     FM210100 18015KT P6SM BKN200=

USA.gov is the U.S. government's official web portal to all federal, state and local government web resources and services.